sensor_id;sensor_type;location;lat;lon;timestamp;pressure;altitude;pressure_sealevel;temperature;humidity
79463;BME280;68931;47.286;18.756;2023-04-08T00:00:03;100896.69;;;4.54;85.74
79463;BME280;68931;47.286;18.756;2023-04-08T00:00:36;100880.47;;;4.46;85.11
79463;BME280;68931;47.286;18.756;2023-04-08T00:01:07;100877.81;;;4.48;84.79
79463;BME280;68931;47.286;18.756;2023-04-08T00:01:37;100894.00;;;4.58;85.75
79463;BME280;68931;47.286;18.756;2023-04-08T00:02:11;100880.25;;;4.54;85.33
79463;BME280;68931;47.286;18.756;2023-04-08T00:02:42;100887.13;;;4.57;85.52
79463;BME280;68931;47.286;18.756;2023-04-08T00:03:12;100893.22;;;4.56;85.34
79463;BME280;68931;47.286;18.756;2023-04-08T00:03:43;100890.59;;;4.56;85.18
79463;BME280;68931;47.286;18.756;2023-04-08T00:04:14;100878.50;;;4.54;84.45
79463;BME280;68931;47.286;18.756;2023-04-08T00:04:45;100880.31;;;4.51;84.66
79463;BME280;68931;47.286;18.756;2023-04-08T00:05:15;100884.53;;;4.57;85.92
79463;BME280;68931;47.286;18.756;2023-04-08T00:05:46;100876.88;;;4.50;84.59
79463;BME280;68931;47.286;18.756;2023-04-08T00:06:16;100886.19;;;4.58;84.77
79463;BME280;68931;47.286;18.756;2023-04-08T00:06:47;100880.28;;;4.52;84.64
79463;BME280;68931;47.286;18.756;2023-04-08T00:07:18;100884.53;;;4.57;85.79
79463;BME280;68931;47.286;18.756;2023-04-08T00:07:48;100874.25;;;4.52;85.84
79463;BME280;68931;47.286;18.756;2023-04-08T00:08:19;100877.50;;;4.59;85.45
79463;BME280;68931;47.286;18.756;2023-04-08T00:08:50;100893.06;;;4.60;84.74
79463;BME280;68931;47.286;18.756;2023-04-08T00:09:20;100883.56;;;4.59;85.64
79463;BME280;68931;47.286;18.756;2023-04-08T00:09:51;100883.53;;;4.61;84.98
79463;BME280;68931;47.286;18.756;2023-04-08T00:10:22;100862.28;;;4.46;86.25
79463;BME280;68931;47.286;18.756;2023-04-08T00:10:54;100883.59;;;4.58;86.11
79463;BME280;68931;47.286;18.756;2023-04-08T00:11:25;100886.31;;;4.54;84.68
79463;BME280;68931;47.286;18.756;2023-04-08T00:11:55;100845.41;;;4.30;85.26
79463;BME280;68931;47.286;18.756;2023-04-08T00:12:26;100872.66;;;4.46;85.41
79463;BME280;68931;47.286;18.756;2023-04-08T00:12:57;100889.75;;;4.55;85.09
79463;BME280;68931;47.286;18.756;2023-04-08T00:13:27;100879.41;;;4.53;85.76
79463;BME280;68931;47.286;18.756;2023-04-08T00:14:02;100882.81;;;4.56;84.99
79463;BME280;68931;47.286;18.756;2023-04-08T00:14:33;100878.69;;;4.48;85.09
79463;BME280;68931;47.286;18.756;2023-04-08T00:15:05;100880.28;;;4.52;85.49
79463;BME280;68931;47.286;18.756;2023-04-08T00:15:36;100882.03;;;4.52;84.78
79463;BME280;68931;47.286;18.756;2023-04-08T00:16:06;100848.78;;;4.32;85.49
79463;BME280;68931;47.286;18.756;2023-04-08T00:16:37;100886.34;;;4.53;84.80
79463;BME280;68931;47.286;18.756;2023-04-08T00:17:08;100882.03;;;4.52;85.00
79463;BME280;68931;47.286;18.756;2023-04-08T00:17:39;100889.72;;;4.57;85.17
79463;BME280;68931;47.286;18.756;2023-04-08T00:18:12;100886.28;;;4.56;84.72
79463;BME280;68931;47.286;18.756;2023-04-08T00:18:45;100880.34;;;4.49;84.93
79463;BME280;68931;47.286;18.756;2023-04-08T00:19:16;100873.47;;;4.48;84.72
79463;BME280;68931;47.286;18.756;2023-04-08T00:19:47;100894.00;;;4.58;84.53
79463;BME280;68931;47.286;18.756;2023-04-08T00:20:22;100885.47;;;4.52;85.22
79463;BME280;68931;47.286;18.756;2023-04-08T00:20:53;100894.00;;;4.58;85.15
79463;BME280;68931;47.286;18.756;2023-04-08T00:21:23;100875.22;;;4.48;85.61
79463;BME280;68931;47.286;18.756;2023-04-08T00:21:54;100894.09;;;4.54;85.85
79463;BME280;68931;47.286;18.756;2023-04-08T00:22:25;100883.88;;;4.48;85.77
79463;BME280;68931;47.286;18.756;2023-04-08T00:22:58;100891.53;;;4.53;85.19
79463;BME280;68931;47.286;18.756;2023-04-08T00:23:29;100894.00;;;4.58;85.75
79463;BME280;68931;47.286;18.756;2023-04-08T00:24:00;100890.56;;;4.57;84.91
79463;BME280;68931;47.286;18.756;2023-04-08T00:24:31;100901.75;;;4.59;86.08
79463;BME280;68931;47.286;18.756;2023-04-08T00:25:02;100897.38;;;4.61;85.45
79463;BME280;68931;47.286;18.756;2023-04-08T00:25:36;100893.09;;;4.59;84.99
79463;BME280;68931;47.286;18.756;2023-04-08T00:26:06;100899.16;;;4.59;85.22
79463;BME280;68931;47.286;18.756;2023-04-08T00:26:37;100894.91;;;4.57;85.06
79463;BME280;68931;47.286;18.756;2023-04-08T00:27:08;100881.13;;;4.53;84.61
79463;BME280;68931;47.286;18.756;2023-04-08T00:27:38;100896.59;;;4.58;85.08
79463;BME280;68931;47.286;18.756;2023-04-08T00:28:09;100900.91;;;4.59;85.33
79463;BME280;68931;47.286;18.756;2023-04-08T00:28:40;100899.16;;;4.59;85.95
79463;BME280;68931;47.286;18.756;2023-04-08T00:29:12;100900.91;;;4.59;84.95
79463;BME280;68931;47.286;18.756;2023-04-08T00:29:43;100877.75;;;4.49;85.68
79463;BME280;68931;47.286;18.756;2023-04-08T00:30:14;100890.50;;;4.59;85.82
79463;BME280;68931;47.286;18.756;2023-04-08T00:30:45;100901.78;;;4.58;85.03
79463;BME280;68931;47.286;18.756;2023-04-08T00:31:16;100888.97;;;4.51;85.33
79463;BME280;68931;47.286;18.756;2023-04-08T00:31:47;100863.34;;;4.39;85.62
79463;BME280;68931;47.286;18.756;2023-04-08T00:32:18;100897.50;;;4.57;84.97
79463;BME280;68931;47.286;18.756;2023-04-08T00:32:48;100890.69;;;4.52;85.30
79463;BME280;68931;47.286;18.756;2023-04-08T00:33:19;100895.69;;;4.59;85.44
79463;BME280;68931;47.286;18.756;2023-04-08T00:33:50;100892.25;;;4.58;86.26
79463;BME280;68931;47.286;18.756;2023-04-08T00:34:20;100896.56;;;4.59;85.61
79463;BME280;68931;47.286;18.756;2023-04-08T00:34:51;100894.84;;;4.58;85.47
79463;BME280;68931;47.286;18.756;2023-04-08T00:35:24;100888.03;;;4.54;86.21
79463;BME280;68931;47.286;18.756;2023-04-08T00:35:56;100888.75;;;4.59;86.08
79463;BME280;68931;47.286;18.756;2023-04-08T00:36:26;100899.13;;;4.61;84.94
79463;BME280;68931;47.286;18.756;2023-04-08T00:36:58;100897.59;;;4.53;85.62
79463;BME280;68931;47.286;18.756;2023-04-08T00:37:29;100905.38;;;4.53;85.92
79463;BME280;68931;47.286;18.756;2023-04-08T00:38:00;100907.16;;;4.51;86.25
79463;BME280;68931;47.286;18.756;2023-04-08T00:38:31;100894.25;;;4.48;86.29
79463;BME280;68931;47.286;18.756;2023-04-08T00:39:02;100885.63;;;4.48;86.03
79463;BME280;68931;47.286;18.756;2023-04-08T00:39:36;100907.91;;;4.57;85.42
79463;BME280;68931;47.286;18.756;2023-04-08T00:40:07;100887.38;;;4.47;86.93
79463;BME280;68931;47.286;18.756;2023-04-08T00:40:37;100861.88;;;4.29;86.05
79463;BME280;68931;47.286;18.756;2023-04-08T00:41:08;100902.81;;;4.52;86.61
79463;BME280;68931;47.286;18.756;2023-04-08T00:41:42;100906.31;;;4.51;86.45
79463;BME280;68931;47.286;18.756;2023-04-08T00:42:16;100900.22;;;4.52;86.57
79463;BME280;68931;47.286;18.756;2023-04-08T00:42:47;100896.78;;;4.50;85.73
79463;BME280;68931;47.286;18.756;2023-04-08T00:43:17;100903.63;;;4.54;86.19
79463;BME280;68931;47.286;18.756;2023-04-08T00:43:51;100903.81;;;4.48;86.49
79463;BME280;68931;47.286;18.756;2023-04-08T00:44:22;100901.25;;;4.46;86.10
79463;BME280;68931;47.286;18.756;2023-04-08T00:44:53;100897.03;;;4.41;86.37
79463;BME280;68931;47.286;18.756;2023-04-08T00:45:23;100908.06;;;4.49;86.97
79463;BME280;68931;47.286;18.756;2023-04-08T00:45:54;100908.16;;;4.47;86.20
79463;BME280;68931;47.286;18.756;2023-04-08T00:46:25;100903.84;;;4.46;86.14
79463;BME280;68931;47.286;18.756;2023-04-08T00:46:56;100905.56;;;4.46;86.81
79463;BME280;68931;47.286;18.756;2023-04-08T00:47:30;100904.69;;;4.47;86.24
79463;BME280;68931;47.286;18.756;2023-04-08T00:48:03;100907.13;;;4.53;86.23
79463;BME280;68931;47.286;18.756;2023-04-08T00:48:34;100904.66;;;4.48;85.64
79463;BME280;68931;47.286;18.756;2023-04-08T00:49:05;100907.19;;;4.50;86.91
79463;BME280;68931;47.286;18.756;2023-04-08T00:49:37;100891.81;;;4.42;86.09
79463;BME280;68931;47.286;18.756;2023-04-08T00:50:08;100900.38;;;4.46;86.24
79463;BME280;68931;47.286;18.756;2023-04-08T00:50:43;100898.03;;;4.37;86.35
79463;BME280;68931;47.286;18.756;2023-04-08T00:51:14;100909.00;;;4.48;86.24
79463;BME280;68931;47.286;18.756;2023-04-08T00:51:45;100906.47;;;4.45;86.56
79463;BME280;68931;47.286;18.756;2023-04-08T00:52:16;100891.91;;;4.39;85.72
79463;BME280;68931;47.286;18.756;2023-04-08T00:52:47;100906.47;;;4.45;87.07
79463;BME280;68931;47.286;18.756;2023-04-08T00:53:18;100893.81;;;4.31;86.79
79463;BME280;68931;47.286;18.756;2023-04-08T00:53:49;100904.03;;;4.39;86.45
79463;BME280;68931;47.286;18.756;2023-04-08T00:54:20;100892.00;;;4.35;86.92
79463;BME280;68931;47.286;18.756;2023-04-08T00:54:54;100892.81;;;4.37;86.94
79463;BME280;68931;47.286;18.756;2023-04-08T00:55:25;100903.00;;;4.44;86.18
79463;BME280;68931;47.286;18.756;2023-04-08T00:55:55;100892.78;;;4.38;86.65
79463;BME280;68931;47.286;18.756;2023-04-08T00:56:31;100903.09;;;4.41;86.70
79463;BME280;68931;47.286;18.756;2023-04-08T00:57:04;100909.06;;;4.45;86.13
79463;BME280;68931;47.286;18.756;2023-04-08T00:57:35;100897.94;;;4.40;86.09
79463;BME280;68931;47.286;18.756;2023-04-08T00:58:07;100905.66;;;4.43;86.59
79463;BME280;68931;47.286;18.756;2023-04-08T00:58:38;100910.75;;;4.47;85.93
79463;BME280;68931;47.286;18.756;2023-04-08T00:59:09;100912.63;;;4.41;86.75
79463;BME280;68931;47.286;18.756;2023-04-08T00:59:44;100915.16;;;4.44;86.26
79463;BME280;68931;47.286;18.756;2023-04-08T01:00:15;100909.06;;;4.45;86.63
79463;BME280;68931;47.286;18.756;2023-04-08T01:00:54;100906.53;;;4.42;86.60
79463;BME280;68931;47.286;18.756;2023-04-08T01:02:42;100899.69;;;4.39;86.10
79463;BME280;68931;47.286;18.756;2023-04-08T01:03:29;100897.22;;;4.33;87.06
79463;BME280;68931;47.286;18.756;2023-04-08T01:05:04;100903.19;;;4.38;86.97
79463;BME280;68931;47.286;18.756;2023-04-08T01:05:55;100906.47;;;4.45;87.11
79463;BME280;68931;47.286;18.756;2023-04-08T01:06:56;100912.63;;;4.41;87.24
79463;BME280;68931;47.286;18.756;2023-04-08T01:07:37;100898.06;;;4.35;86.44
79463;BME280;68931;47.286;18.756;2023-04-08T01:08:11;100869.09;;;4.16;86.57
79463;BME280;68931;47.286;18.756;2023-04-08T01:08:44;100886.19;;;4.25;86.80
79463;BME280;68931;47.286;18.756;2023-04-08T01:09:20;100900.78;;;4.31;87.13
79463;BME280;68931;47.286;18.756;2023-04-08T01:10:02;100902.47;;;4.32;86.78
79463;BME280;68931;47.286;18.756;2023-04-08T01:10:37;100905.13;;;4.30;86.99
79463;BME280;68931;47.286;18.756;2023-04-08T01:11:10;100899.09;;;4.28;87.28
79463;BME280;68931;47.286;18.756;2023-04-08T01:11:43;100895.66;;;4.28;87.44
79463;BME280;68931;47.286;18.756;2023-04-08T01:12:21;100909.25;;;4.37;86.91
79463;BME280;68931;47.286;18.756;2023-04-08T01:12:58;100904.19;;;4.31;86.79
79463;BME280;68931;47.286;18.756;2023-04-08T01:13:37;100906.75;;;4.34;87.21
79463;BME280;68931;47.286;18.756;2023-04-08T01:14:15;100906.63;;;4.39;87.48
79463;BME280;68931;47.286;18.756;2023-04-08T01:14:54;100901.53;;;4.34;87.18
79463;BME280;68931;47.286;18.756;2023-04-08T01:15:29;100860.56;;;4.13;87.22
79463;BME280;68931;47.286;18.756;2023-04-08T01:16:01;100901.53;;;4.34;87.07
79463;BME280;68931;47.286;18.756;2023-04-08T01:16:33;100899.88;;;4.32;87.60
79463;BME280;68931;47.286;18.756;2023-04-08T01:17:05;100893.06;;;4.28;87.08
79463;BME280;68931;47.286;18.756;2023-04-08T01:17:37;100900.53;;;4.40;87.21
79463;BME280;68931;47.286;18.756;2023-04-08T01:18:11;100897.25;;;4.32;87.77
79463;BME280;68931;47.286;18.756;2023-04-08T01:18:43;100880.19;;;4.23;87.60
79463;BME280;68931;47.286;18.756;2023-04-08T01:19:38;100895.63;;;4.29;88.13
79463;BME280;68931;47.286;18.756;2023-04-08T01:20:10;100904.19;;;4.31;87.27
79463;BME280;68931;47.286;18.756;2023-04-08T01:20:43;100896.50;;;4.28;87.82
79463;BME280;68931;47.286;18.756;2023-04-08T01:21:17;100896.38;;;4.33;87.88
79463;BME280;68931;47.286;18.756;2023-04-08T01:21:48;100897.22;;;4.33;87.63
79463;BME280;68931;47.286;18.756;2023-04-08T01:24:15;100884.59;;;4.21;87.94
79463;BME280;68931;47.286;18.756;2023-04-08T01:24:49;100908.69;;;4.26;88.15
79463;BME280;68931;47.286;18.756;2023-04-08T01:25:32;100907.88;;;4.23;87.64
79463;BME280;68931;47.286;18.756;2023-04-08T01:26:04;100905.22;;;4.26;87.40
79463;BME280;68931;47.286;18.756;2023-04-08T01:26:35;100889.06;;;4.14;88.13
79463;BME280;68931;47.286;18.756;2023-04-08T01:27:06;100899.31;;;4.21;88.53
79463;BME280;68931;47.286;18.756;2023-04-08T01:27:39;100893.25;;;4.20;87.78
79463;BME280;68931;47.286;18.756;2023-04-08T01:28:12;100866.84;;;4.04;88.35
79463;BME280;68931;47.286;18.756;2023-04-08T01:28:45;100895.03;;;4.18;88.15
79463;BME280;68931;47.286;18.756;2023-04-08T01:29:16;100898.28;;;4.26;88.07
79463;BME280;68931;47.286;18.756;2023-04-08T01:29:51;100901.78;;;4.25;88.06
79463;BME280;68931;47.286;18.756;2023-04-08T01:30:24;100897.56;;;4.21;87.89
79463;BME280;68931;47.286;18.756;2023-04-08T01:30:58;100896.59;;;4.24;88.20
79463;BME280;68931;47.286;18.756;2023-04-08T01:31:30;100894.91;;;4.23;88.46
79463;BME280;68931;47.286;18.756;2023-04-08T01:32:02;100892.28;;;4.24;88.87
79463;BME280;68931;47.286;18.756;2023-04-08T01:32:33;100894.97;;;4.21;88.18
79463;BME280;68931;47.286;18.756;2023-04-08T01:33:05;100899.13;;;4.27;87.70
79463;BME280;68931;47.286;18.756;2023-04-08T01:33:37;100898.31;;;4.25;88.12
79463;BME280;68931;47.286;18.756;2023-04-08T01:34:09;100908.69;;;4.26;88.73
79463;BME280;68931;47.286;18.756;2023-04-08T01:34:42;100903.47;;;4.26;88.26
79463;BME280;68931;47.286;18.756;2023-04-08T01:35:14;100905.16;;;4.29;87.74
79463;BME280;68931;47.286;18.756;2023-04-08T01:35:46;100905.16;;;4.29;88.50
79463;BME280;68931;47.286;18.756;2023-04-08T01:36:19;100897.41;;;4.27;88.10
79463;BME280;68931;47.286;18.756;2023-04-08T01:36:52;100899.06;;;4.30;88.34
79463;BME280;68931;47.286;18.756;2023-04-08T01:37:27;100901.66;;;4.30;88.53
79463;BME280;68931;47.286;18.756;2023-04-08T01:37:59;100899.22;;;4.24;88.58
79463;BME280;68931;47.286;18.756;2023-04-08T01:38:38;100897.41;;;4.27;87.54
79463;BME280;68931;47.286;18.756;2023-04-08T01:39:10;100892.41;;;4.20;88.04
79463;BME280;68931;47.286;18.756;2023-04-08T01:39:41;100899.22;;;4.24;88.43
79463;BME280;68931;47.286;18.756;2023-04-08T01:40:15;100893.25;;;4.20;88.50
79463;BME280;68931;47.286;18.756;2023-04-08T01:40:48;100894.78;;;4.29;88.62
79463;BME280;68931;47.286;18.756;2023-04-08T01:41:20;100908.69;;;4.26;89.08
79463;BME280;68931;47.286;18.756;2023-04-08T01:41:53;100900.91;;;4.25;88.91
79463;BME280;68931;47.286;18.756;2023-04-08T01:42:26;100899.97;;;4.29;88.25
79463;BME280;68931;47.286;18.756;2023-04-08T01:42:59;100888.09;;;4.19;88.54
79463;BME280;68931;47.286;18.756;2023-04-08T01:43:32;100895.72;;;4.25;88.23
79463;BME280;68931;47.286;18.756;2023-04-08T01:44:04;100898.31;;;4.25;88.80
79463;BME280;68931;47.286;18.756;2023-04-08T01:44:37;100900.03;;;4.26;88.10
79463;BME280;68931;47.286;18.756;2023-04-08T01:45:10;100894.00;;;4.24;88.94
79463;BME280;68931;47.286;18.756;2023-04-08T01:45:46;100903.47;;;4.26;87.95
79463;BME280;68931;47.286;18.756;2023-04-08T01:46:19;100895.72;;;4.25;88.06
79463;BME280;68931;47.286;18.756;2023-04-08T01:46:52;100900.81;;;4.29;88.14
79463;BME280;68931;47.286;18.756;2023-04-08T01:47:24;100885.44;;;4.22;88.13
79463;BME280;68931;47.286;18.756;2023-04-08T01:47:57;100896.38;;;4.33;87.68
79463;BME280;68931;47.286;18.756;2023-04-08T01:48:30;100893.81;;;4.31;88.70
79463;BME280;68931;47.286;18.756;2023-04-08T01:49:01;100870.03;;;4.14;88.55
79463;BME280;68931;47.286;18.756;2023-04-08T01:49:32;100891.19;;;4.33;87.69
79463;BME280;68931;47.286;18.756;2023-04-08T01:50:05;100905.88;;;4.34;87.62
79463;BME280;68931;47.286;18.756;2023-04-08T01:50:37;100887.03;;;4.26;87.73
79463;BME280;68931;47.286;18.756;2023-04-08T01:51:08;100898.97;;;4.33;88.51
79463;BME280;68931;47.286;18.756;2023-04-08T01:51:42;100893.00;;;4.31;88.42
79463;BME280;68931;47.286;18.756;2023-04-08T01:52:17;100883.59;;;4.25;87.67
79463;BME280;68931;47.286;18.756;2023-04-08T01:52:50;100891.22;;;4.31;88.06
79463;BME280;68931;47.286;18.756;2023-04-08T01:53:23;100893.72;;;4.36;87.53
79463;BME280;68931;47.286;18.756;2023-04-08T01:53:54;100873.25;;;4.24;88.29
79463;BME280;68931;47.286;18.756;2023-04-08T01:54:25;100885.97;;;4.34;87.37
79463;BME280;68931;47.286;18.756;2023-04-08T01:54:55;100893.75;;;4.34;88.35
79463;BME280;68931;47.286;18.756;2023-04-08T01:55:27;100899.72;;;4.38;88.38
79463;BME280;68931;47.286;18.756;2023-04-08T01:56:05;100884.28;;;4.32;88.62
79463;BME280;68931;47.286;18.756;2023-04-08T01:56:40;100872.28;;;4.28;88.16
79463;BME280;68931;47.286;18.756;2023-04-08T01:57:18;100896.94;;;4.45;88.70
79463;BME280;68931;47.286;18.756;2023-04-08T01:57:53;100887.50;;;4.41;88.21
79463;BME280;68931;47.286;18.756;2023-04-08T01:58:42;100889.22;;;4.42;87.26
79463;BME280;68931;47.286;18.756;2023-04-08T01:59:18;100890.91;;;4.43;87.88
79463;BME280;68931;47.286;18.756;2023-04-08T01:59:51;100890.06;;;4.43;87.68
79463;BME280;68931;47.286;18.756;2023-04-08T02:00:27;100896.94;;;4.45;88.02
79463;BME280;68931;47.286;18.756;2023-04-08T02:00:59;100889.31;;;4.39;87.92
79463;BME280;68931;47.286;18.756;2023-04-08T02:01:32;100894.38;;;4.44;88.01
79463;BME280;68931;47.286;18.756;2023-04-08T02:02:07;100899.53;;;4.45;88.48
79463;BME280;68931;47.286;18.756;2023-04-08T02:02:43;100889.34;;;4.38;87.05
79463;BME280;68931;47.286;18.756;2023-04-08T02:03:17;100894.41;;;4.42;87.58
79463;BME280;68931;47.286;18.756;2023-04-08T02:03:54;100896.13;;;4.43;88.23
79463;BME280;68931;47.286;18.756;2023-04-08T02:04:29;100903.91;;;4.43;88.21
79463;BME280;68931;47.286;18.756;2023-04-08T02:05:00;100899.69;;;4.39;87.99
79463;BME280;68931;47.286;18.756;2023-04-08T02:05:31;100903.91;;;4.43;87.22
79463;BME280;68931;47.286;18.756;2023-04-08T02:06:01;100904.72;;;4.45;87.40
79463;BME280;68931;47.286;18.756;2023-04-08T02:06:32;100867.16;;;4.25;88.09
79463;BME280;68931;47.286;18.756;2023-04-08T02:07:04;100907.38;;;4.42;87.46
79463;BME280;68931;47.286;18.756;2023-04-08T02:07:35;100894.50;;;4.39;87.84
79463;BME280;68931;47.286;18.756;2023-04-08T02:08:06;100890.13;;;4.40;88.31
79463;BME280;68931;47.286;18.756;2023-04-08T02:08:37;100902.09;;;4.47;87.39
79463;BME280;68931;47.286;18.756;2023-04-08T02:09:07;100901.31;;;4.43;88.25
79463;BME280;68931;47.286;18.756;2023-04-08T02:09:38;100902.16;;;4.44;88.31
79463;BME280;68931;47.286;18.756;2023-04-08T02:10:09;100899.59;;;4.42;87.17
79463;BME280;68931;47.286;18.756;2023-04-08T02:10:40;100897.03;;;4.41;87.40
79463;BME280;68931;47.286;18.756;2023-04-08T02:11:11;100898.84;;;4.39;87.60
79463;BME280;68931;47.286;18.756;2023-04-08T02:11:42;100908.22;;;4.44;88.01
79463;BME280;68931;47.286;18.756;2023-04-08T02:12:12;100894.41;;;4.42;87.47
79463;BME280;68931;47.286;18.756;2023-04-08T02:12:44;100904.75;;;4.44;88.02
79463;BME280;68931;47.286;18.756;2023-04-08T02:13:16;100902.19;;;4.42;87.38
79463;BME280;68931;47.286;18.756;2023-04-08T02:13:47;100891.97;;;4.36;88.01
79463;BME280;68931;47.286;18.756;2023-04-08T02:14:18;100894.78;;;4.29;87.85
79463;BME280;68931;47.286;18.756;2023-04-08T02:14:52;100887.91;;;4.26;88.23
79463;BME280;68931;47.286;18.756;2023-04-08T02:15:26;100895.53;;;4.32;88.42
79463;BME280;68931;47.286;18.756;2023-04-08T02:16:18;100911.88;;;4.37;87.70
79463;BME280;68931;47.286;18.756;2023-04-08T02:17:13;100910.88;;;4.41;87.76
79463;BME280;68931;47.286;18.756;2023-04-08T02:17:54;100904.06;;;4.37;88.42
79463;BME280;68931;47.286;18.756;2023-04-08T02:18:25;100892.91;;;4.34;88.35
79463;BME280;68931;47.286;18.756;2023-04-08T02:19:13;100898.88;;;4.37;87.91
79463;BME280;68931;47.286;18.756;2023-04-08T02:19:56;100891.19;;;4.33;88.33
79463;BME280;68931;47.286;18.756;2023-04-08T02:20:35;100897.22;;;4.33;88.28
79463;BME280;68931;47.286;18.756;2023-04-08T02:21:14;100902.41;;;4.35;88.97
79463;BME280;68931;47.286;18.756;2023-04-08T02:21:50;100888.75;;;4.27;88.65
79463;BME280;68931;47.286;18.756;2023-04-08T02:22:42;100904.13;;;4.34;88.54
79463;BME280;68931;47.286;18.756;2023-04-08T02:23:23;100908.44;;;4.35;88.50
79463;BME280;68931;47.286;18.756;2023-04-08T02:23:58;100896.50;;;4.28;88.71
79463;BME280;68931;47.286;18.756;2023-04-08T02:24:32;100901.75;;;4.27;88.58
79463;BME280;68931;47.286;18.756;2023-04-08T02:25:07;100896.59;;;4.24;88.30
79463;BME280;68931;47.286;18.756;2023-04-08T02:25:43;100900.91;;;4.25;89.09
79463;BME280;68931;47.286;18.756;2023-04-08T02:26:19;100903.50;;;4.25;89.19
79463;BME280;68931;47.286;18.756;2023-04-08T02:26:51;100904.34;;;4.27;88.83
79463;BME280;68931;47.286;18.756;2023-04-08T02:27:24;100893.22;;;4.22;88.97
79463;BME280;68931;47.286;18.756;2023-04-08T02:27:59;100885.53;;;4.17;89.02
79463;BME280;68931;47.286;18.756;2023-04-08T02:28:34;100902.63;;;4.26;88.44
79463;BME280;68931;47.286;18.756;2023-04-08T02:29:10;100912.09;;;4.28;88.15
79463;BME280;68931;47.286;18.756;2023-04-08T02:29:41;100904.31;;;4.28;88.62
79463;BME280;68931;47.286;18.756;2023-04-08T02:30:14;100912.09;;;4.28;88.23
79463;BME280;68931;47.286;18.756;2023-04-08T02:30:50;100904.31;;;4.28;88.22
79463;BME280;68931;47.286;18.756;2023-04-08T02:31:22;100864.28;;;4.03;88.62
79463;BME280;68931;47.286;18.756;2023-04-08T02:31:54;100902.69;;;4.23;89.03
79463;BME280;68931;47.286;18.756;2023-04-08T02:32:27;100898.47;;;4.19;88.40
79463;BME280;68931;47.286;18.756;2023-04-08T02:33:03;100897.63;;;4.18;89.02
79463;BME280;68931;47.286;18.756;2023-04-08T02:33:34;100905.22;;;4.26;89.20
79463;BME280;68931;47.286;18.756;2023-04-08T02:34:09;100877.97;;;4.08;88.94
79463;BME280;68931;47.286;18.756;2023-04-08T02:34:40;100902.63;;;4.26;88.62
79463;BME280;68931;47.286;18.756;2023-04-08T02:35:13;100906.06;;;4.26;89.20
79463;BME280;68931;47.286;18.756;2023-04-08T02:35:47;100901.72;;;4.28;89.44
79463;BME280;68931;47.286;18.756;2023-04-08T02:36:19;100894.88;;;4.24;88.46
79463;BME280;68931;47.286;18.756;2023-04-08T02:36:50;100897.38;;;4.29;88.32
79463;BME280;68931;47.286;18.756;2023-04-08T02:37:21;100894.78;;;4.29;89.47
79463;BME280;68931;47.286;18.756;2023-04-08T02:37:52;100882.84;;;4.22;88.85
79463;BME280;68931;47.286;18.756;2023-04-08T02:38:23;100899.09;;;4.28;89.19
79463;BME280;68931;47.286;18.756;2023-04-08T02:38:53;100890.53;;;4.25;89.35
79463;BME280;68931;47.286;18.756;2023-04-08T02:39:31;100905.97;;;4.31;89.40
79463;BME280;68931;47.286;18.756;2023-04-08T02:40:02;100899.19;;;4.25;88.65
79463;BME280;68931;47.286;18.756;2023-04-08T02:40:34;100901.59;;;4.31;89.85
79463;BME280;68931;47.286;18.756;2023-04-08T02:41:07;100884.59;;;4.21;88.83
79463;BME280;68931;47.286;18.756;2023-04-08T02:41:38;100906.75;;;4.34;88.87
79463;BME280;68931;47.286;18.756;2023-04-08T02:42:09;100893.03;;;4.29;88.82
79463;BME280;68931;47.286;18.756;2023-04-08T02:42:40;100892.19;;;4.29;89.88
79463;BME280;68931;47.286;18.756;2023-04-08T02:43:10;100898.28;;;4.26;88.75
79463;BME280;68931;47.286;18.756;2023-04-08T02:43:42;100901.72;;;4.28;89.11
79463;BME280;68931;47.286;18.756;2023-04-08T02:44:12;100906.03;;;4.28;89.32
79463;BME280;68931;47.286;18.756;2023-04-08T02:44:43;100906.91;;;4.28;88.89
79463;BME280;68931;47.286;18.756;2023-04-08T02:45:14;100898.28;;;4.26;88.87
79463;BME280;68931;47.286;18.756;2023-04-08T02:45:45;100896.75;;;4.19;89.27
79463;BME280;68931;47.286;18.756;2023-04-08T02:46:15;100899.34;;;4.19;88.58
79463;BME280;68931;47.286;18.756;2023-04-08T02:46:46;100906.16;;;4.23;89.28
79463;BME280;68931;47.286;18.756;2023-04-08T02:47:17;100894.00;;;4.24;88.49
79463;BME280;68931;47.286;18.756;2023-04-08T02:47:47;100901.88;;;4.22;89.67
79463;BME280;68931;47.286;18.756;2023-04-08T02:48:18;100902.69;;;4.23;89.17
79463;BME280;68931;47.286;18.756;2023-04-08T02:48:49;100891.56;;;4.19;88.20
79463;BME280;68931;47.286;18.756;2023-04-08T02:49:20;100900.06;;;4.24;88.62
79463;BME280;68931;47.286;18.756;2023-04-08T02:49:51;100903.44;;;4.28;89.33
79463;BME280;68931;47.286;18.756;2023-04-08T02:50:22;100908.59;;;4.29;88.31
79463;BME280;68931;47.286;18.756;2023-04-08T02:50:53;100902.56;;;4.29;89.25
79463;BME280;68931;47.286;18.756;2023-04-08T02:51:24;100901.78;;;4.25;89.74
79463;BME280;68931;47.286;18.756;2023-04-08T02:51:55;100895.81;;;4.22;88.80
79463;BME280;68931;47.286;18.756;2023-04-08T02:52:26;100904.34;;;4.27;89.20
79463;BME280;68931;47.286;18.756;2023-04-08T02:52:56;100900.00;;;4.27;88.75
79463;BME280;68931;47.286;18.756;2023-04-08T02:53:27;100904.34;;;4.27;88.51
79463;BME280;68931;47.286;18.756;2023-04-08T02:53:58;100906.97;;;4.25;88.85
79463;BME280;68931;47.286;18.756;2023-04-08T02:54:29;100903.47;;;4.26;88.30
79463;BME280;68931;47.286;18.756;2023-04-08T02:55:00;100899.09;;;4.28;88.38
79463;BME280;68931;47.286;18.756;2023-04-08T02:55:30;100898.22;;;4.29;89.15
79463;BME280;68931;47.286;18.756;2023-04-08T02:56:01;100893.22;;;4.22;89.12
79463;BME280;68931;47.286;18.756;2023-04-08T02:56:32;100897.56;;;4.21;88.72